Time;durP1;ratioP1;P1;durP2;ratioP2;P2;SDS_P1;SDS_P2;PMS_P1;PMS_P2;Temp;Humidity;BMP_temperature;BMP_pressure;BME280_temperature;BME280_humidity;BME280_pressure;Samples;Min_cycle;Max_cycle;Signal;HPM_P1;HPM_P2
2021/05/29 00:01:02;;;;;;;49.17;37.95;;;22.60;91.00;;;;;;5038426;28;20382;-82
2021/05/29 00:03:28;;;;;;;49.67;37.15;;;22.60;91.00;;;;;;5073165;28;20025;-81
2021/05/29 00:05:54;;;;;;;50.97;40.45;;;22.60;91.00;;;;;;5038581;28;20135;-81
2021/05/29 00:08:21;;;;;;;51.45;39.53;;;22.60;91.00;;;;;;5072898;28;20070;-81
2021/05/29 00:10:50;;;;;;;53.88;40.75;;;22.60;91.00;;;;;;5054837;28;20430;-82
2021/05/29 00:13:17;;;;;;;56.20;43.00;;;22.60;91.00;;;;;;5072877;28;20031;-82
2021/05/29 00:15:43;;;;;;;56.78;43.13;;;22.60;91.00;;;;;;5073171;28;20028;-82
2021/05/29 00:18:09;;;;;;;55.63;42.83;;;22.60;91.00;;;;;;5054998;28;20075;-82
2021/05/29 00:20:39;;;;;;;62.10;46.88;;;22.60;91.00;;;;;;5055221;28;20037;-82
2021/05/29 00:23:06;;;;;;;60.63;46.60;;;22.60;91.00;;;;;;5039144;28;20062;-82
2021/05/29 00:25:33;;;;;;;66.32;49.67;;;22.60;91.00;;;;;;5072706;28;20024;-81
2021/05/29 00:27:59;;;;;;;63.70;49.45;;;22.60;91.00;;;;;;5038519;28;20102;-81
2021/05/29 00:30:24;;;;;;;63.58;49.22;;;22.60;91.00;;;;;;5057890;28;20472;-82
2021/05/29 00:32:50;;;;;;;68.60;52.85;;;22.60;91.00;;;;;;5075773;28;20090;-81
2021/05/29 00:35:16;;;;;;;71.10;53.25;;;22.60;91.00;;;;;;5058745;28;20122;-82
2021/05/29 00:37:42;;;;;;;69.38;54.28;;;22.60;91.00;;;;;;5077079;28;20039;-81
2021/05/29 00:40:08;;;;;;;68.85;54.08;;;22.60;91.00;;;;;;5058918;28;20032;-82
2021/05/29 00:42:34;;;;;;;71.85;56.10;;;22.60;91.00;;;;;;5058929;28;20056;-82
2021/05/29 00:45:00;;;;;;;72.85;54.53;;;22.60;91.00;;;;;;5075608;28;20063;-82
2021/05/29 00:47:28;;;;;;;77.22;59.90;;;22.60;91.00;;;;;;5058521;28;20062;-83
2021/05/29 00:49:56;;;;;;;75.25;58.33;;;22.60;91.00;;;;;;5058563;28;20478;-80
2021/05/29 00:52:22;;;;;;;76.10;59.28;;;22.60;91.00;;;;;;5076409;28;20104;-81
2021/05/29 00:54:49;;;;;;;78.75;61.65;;;22.60;91.00;;;;;;5042374;28;20111;-81
2021/05/29 00:57:16;;;;;;;81.25;62.85;;;22.60;91.00;;;;;;5058105;28;20044;-81
2021/05/29 00:59:42;;;;;;;78.47;62.67;;;22.60;91.00;;;;;;5058871;28;20535;-81
2021/05/29 01:02:10;;;;;;;81.57;63.20;;;22.60;91.10;;;;;;5075885;28;20020;-82
2021/05/29 01:04:36;;;;;;;83.63;65.10;;;22.60;91.00;;;;;;5058511;28;20055;-81
2021/05/29 01:07:07;;;;;;;89.22;67.13;;;22.60;91.10;;;;;;5058383;28;20036;-82
2021/05/29 01:09:33;;;;;;;82.97;64.80;;;22.60;91.10;;;;;;5076299;28;20086;-82
2021/05/29 01:11:58;;;;;;;88.22;67.38;;;22.60;91.10;;;;;;5075226;28;20060;-82
2021/05/29 01:14:25;;;;;;;87.13;68.53;;;22.60;91.10;;;;;;5057855;28;20390;-80
2021/05/29 01:17:00;;;;;;;87.70;66.57;;;22.60;91.10;;;;;;5074508;28;20034;-81
2021/05/29 01:19:26;;;;;;;88.15;67.90;;;22.60;91.10;;;;;;5075941;28;20475;-82
2021/05/29 01:21:51;;;;;;;88.10;67.07;;;22.60;91.10;;;;;;5058160;28;20033;-81
2021/05/29 01:24:18;;;;;;;88.30;68.20;;;22.60;91.10;;;;;;5074517;28;20032;-82
2021/05/29 01:26:45;;;;;;;86.78;67.70;;;22.60;91.10;;;;;;5057967;28;20116;-82
2021/05/29 01:29:11;;;;;;;85.70;68.28;;;22.60;91.10;;;;;;5057843;28;20024;-81
2021/05/29 01:31:37;;;;;;;87.63;68.80;;;22.60;91.10;;;;;;5058053;28;20036;-81
2021/05/29 01:34:03;;;;;;;88.95;69.45;;;22.60;91.10;;;;;;5074496;28;20032;-81
2021/05/29 01:36:29;;;;;;;89.53;68.60;;;22.60;91.10;;;;;;5074343;28;20025;-81
2021/05/29 01:38:55;;;;;;;86.68;68.10;;;22.60;91.10;;;;;;5024717;28;20036;-82
2021/05/29 01:41:23;;;;;;;90.97;70.70;;;22.60;91.10;;;;;;5057478;28;20056;-81
2021/05/29 01:43:51;;;;;;;93.10;69.38;;;22.60;91.10;;;;;;5057802;28;20033;-82
2021/05/29 01:46:20;;;;;;;90.97;70.90;;;22.60;91.10;;;;;;5075448;28;20028;-82
2021/05/29 01:48:48;;;;;;;89.32;69.60;;;22.60;91.10;;;;;;5057344;28;20024;-82
2021/05/29 01:51:15;;;;;;;90.55;71.28;;;22.60;91.10;;;;;;5075340;28;20037;-82
2021/05/29 01:53:41;;;;;;;85.60;68.57;;;22.60;91.10;;;;;;5075197;28;20087;-82
2021/05/29 01:56:08;;;;;;;89.88;71.53;;;22.60;91.10;;;;;;5057223;28;20494;-82
2021/05/29 01:58:36;;;;;;;87.00;69.82;;;22.60;91.10;;;;;;5073959;28;20028;-82
2021/05/29 02:01:03;;;;;;;86.65;68.90;;;22.60;91.10;;;;;;5057080;28;20494;-82
2021/05/29 02:03:29;;;;;;;89.90;70.63;;;22.60;91.20;;;;;;5075194;28;20028;-81
2021/05/29 02:05:54;;;;;;;87.05;69.63;;;22.60;91.20;;;;;;5057678;28;20172;-81
2021/05/29 02:08:20;;;;;;;87.57;68.63;;;22.60;91.20;;;;;;5075017;28;20129;-81
2021/05/29 02:10:47;;;;;;;84.28;68.25;;;22.60;91.20;;;;;;5057354;28;20482;-80
2021/05/29 02:13:23;;;;;;;87.38;69.63;;;22.60;91.20;;;;;;5074904;28;20102;-82
2021/05/29 02:15:49;;;;;;;87.80;69.85;;;22.60;91.20;;;;;;5075407;28;20032;-81
2021/05/29 02:18:15;;;;;;;88.00;69.90;;;22.60;91.20;;;;;;5074704;28;20024;-82
2021/05/29 02:20:47;;;;;;;85.60;67.20;;;22.60;91.20;;;;;;5073812;28;20032;-81
2021/05/29 02:23:16;;;;;;;87.20;68.80;;;22.60;91.20;;;;;;5057215;28;20409;-81
2021/05/29 02:25:42;;;;;;;88.13;67.85;;;22.60;91.20;;;;;;5075271;28;20017;-81
2021/05/29 02:28:08;;;;;;;83.90;66.90;;;22.60;91.20;;;;;;5057061;28;20029;-82
2021/05/29 02:30:35;;;;;;;88.50;69.85;;;22.60;91.20;;;;;;5056745;28;20067;-81
2021/05/29 02:33:01;;;;;;;84.05;66.85;;;22.60;91.20;;;;;;5075235;28;20037;-81
2021/05/29 02:35:27;;;;;;;84.18;67.63;;;22.60;91.20;;;;;;5057374;28;20091;-82
2021/05/29 02:37:53;;;;;;;83.32;65.40;;;22.60;91.20;;;;;;5074907;28;20079;-81
2021/05/29 02:40:19;;;;;;;84.88;66.70;;;22.60;91.20;;;;;;5056940;28;20402;-81
2021/05/29 02:42:46;;;;;;;80.45;65.35;;;22.60;91.20;;;;;;5056884;28;20480;-81
2021/05/29 02:45:12;;;;;;;85.05;67.85;;;22.60;91.20;;;;;;5056729;28;20028;-80
2021/05/29 02:47:38;;;;;;;79.93;63.00;;;22.60;91.20;;;;;;5073888;28;20415;-81
2021/05/29 02:50:04;;;;;;;83.65;65.32;;;22.60;91.20;;;;;;5056700;28;20042;-81
2021/05/29 02:52:30;;;;;;;78.82;62.38;;;22.60;91.20;;;;;;5073930;28;20116;-81
2021/05/29 02:54:56;;;;;;;81.70;64.72;;;22.60;91.20;;;;;;5056442;28;20052;-82
2021/05/29 02:57:22;;;;;;;81.53;63.88;;;22.60;91.20;;;;;;5056024;28;20060;-82
2021/05/29 02:59:47;;;;;;;76.05;60.17;;;22.60;91.20;;;;;;5074574;28;20112;-82
2021/05/29 03:02:13;;;;;;;75.93;60.83;;;22.60;91.20;;;;;;5074485;28;20025;-82
2021/05/29 03:04:39;;;;;;;77.10;61.70;;;22.60;91.20;;;;;;5056471;28;20028;-82
2021/05/29 03:07:05;;;;;;;79.07;62.90;;;22.60;91.20;;;;;;5023467;28;20367;-82
2021/05/29 03:09:31;;;;;;;75.63;60.28;;;22.60;91.20;;;;;;5055933;28;20458;-82
2021/05/29 03:11:57;;;;;;;75.95;60.67;;;22.60;91.20;;;;;;5074050;28;20076;-82
2021/05/29 03:14:23;;;;;;;70.75;57.65;;;22.60;91.20;;;;;;5055890;28;20047;-82
2021/05/29 03:16:49;;;;;;;72.20;58.67;;;22.60;91.30;;;;;;5056069;28;20414;-82
2021/05/29 03:19:16;;;;;;;72.47;56.83;;;22.60;91.20;;;;;;5072573;28;20024;-82
2021/05/29 03:21:42;;;;;;;72.43;57.65;;;22.60;91.20;;;;;;5055678;28;20025;-82
2021/05/29 03:24:08;;;;;;;70.55;56.50;;;22.50;91.20;;;;;;5055834;28;20029;-82
2021/05/29 03:26:34;;;;;;;68.90;55.17;;;22.60;91.20;;;;;;5073636;28;20150;-81
2021/05/29 03:29:00;;;;;;;70.65;56.13;;;22.50;91.20;;;;;;5055847;28;20505;-82
2021/05/29 03:31:28;;;;;;;66.72;53.63;;;22.60;91.20;;;;;;5073380;28;20028;-81
2021/05/29 03:33:54;;;;;;;67.60;54.35;;;22.60;91.20;;;;;;5055836;28;20486;-81
2021/05/29 03:36:20;;;;;;;67.32;54.47;;;22.50;91.20;;;;;;5055574;28;20378;-81
2021/05/29 03:38:46;;;;;;;66.85;53.38;;;22.60;91.30;;;;;;5073387;28;20471;-81
2021/05/29 03:41:12;;;;;;;68.47;53.00;;;22.50;91.20;;;;;;5073233;28;20024;-81
2021/05/29 03:43:37;;;;;;;67.10;53.20;;;22.50;91.20;;;;;;5072925;28;20433;-82
2021/05/29 03:46:04;;;;;;;63.10;49.95;;;22.60;91.20;;;;;;5055749;28;20063;-82
2021/05/29 03:48:30;;;;;;;65.20;50.70;;;22.50;91.20;;;;;;5073132;28;20028;-82
2021/05/29 03:50:55;;;;;;;59.63;48.55;;;22.50;91.20;;;;;;5038935;28;20040;-82
2021/05/29 03:53:21;;;;;;;63.47;50.55;;;22.50;91.20;;;;;;5073353;28;20032;-82
2021/05/29 03:55:47;;;;;;;61.13;47.95;;;22.50;91.20;;;;;;5054951;28;20064;-82
2021/05/29 03:58:12;;;;;;;59.72;47.67;;;22.50;91.20;;;;;;5038937;28;20037;-82
2021/05/29 04:00:38;;;;;;;56.95;46.10;;;22.50;91.20;;;;;;5055083;28;20115;-82
2021/05/29 04:03:04;;;;;;;59.35;47.80;;;22.50;91.20;;;;;;5038736;28;20115;-82
2021/05/29 04:05:30;;;;;;;57.80;45.92;;;22.50;91.20;;;;;;5072855;28;20178;-82
2021/05/29 04:07:55;;;;;;;55.67;45.88;;;22.50;91.20;;;;;;5071229;28;20028;-82
2021/05/29 04:10:24;;;;;;;56.33;45.30;;;22.50;91.20;;;;;;5038540;28;20043;-82
2021/05/29 04:12:50;;;;;;;52.70;43.25;;;22.50;91.20;;;;;;5073101;28;20040;-82
2021/05/29 04:15:18;;;;;;;58.25;45.67;;;22.50;91.20;;;;;;5073077;28;20032;-82
2021/05/29 04:17:45;;;;;;;53.40;43.63;;;22.50;91.20;;;;;;5072768;28;20024;-82
2021/05/29 04:20:12;;;;;;;55.03;44.03;;;22.50;91.20;;;;;;5055112;28;20029;-81
2021/05/29 04:22:38;;;;;;;56.72;45.47;;;22.50;91.20;;;;;;5054302;28;20037;-81
2021/05/29 04:25:06;;;;;;;54.85;44.47;;;22.50;91.20;;;;;;5055012;28;20406;-81
2021/05/29 04:27:32;;;;;;;54.83;43.17;;;22.60;91.20;;;;;;5072839;28;20074;-81
2021/05/29 04:29:59;;;;;;;52.88;42.95;;;22.50;91.20;;;;;;5054977;28;20470;-81
2021/05/29 04:32:25;;;;;;;51.13;41.72;;;22.50;91.20;;;;;;5038803;28;20476;-81
2021/05/29 04:34:51;;;;;;;51.22;41.50;;;22.60;91.20;;;;;;5054912;28;20055;-81
2021/05/29 04:37:17;;;;;;;51.72;41.78;;;22.60;91.20;;;;;;5038590;28;20498;-81
2021/05/29 04:39:46;;;;;;;52.75;41.40;;;22.60;91.20;;;;;;5072731;28;20071;-82
2021/05/29 04:42:12;;;;;;;52.92;41.00;;;22.60;91.20;;;;;;5072844;28;20036;-81
2021/05/29 04:44:38;;;;;;;49.20;40.38;;;22.60;91.10;;;;;;5054476;28;20025;-80
2021/05/29 04:47:04;;;;;;;49.72;39.53;;;22.60;91.10;;;;;;5054918;28;20115;-81
2021/05/29 04:49:30;;;;;;;48.10;37.95;;;22.60;91.10;;;;;;5038366;28;20119;-82
2021/05/29 04:51:57;;;;;;;47.55;38.40;;;22.60;91.10;;;;;;5072820;28;20029;-81
2021/05/29 04:54:23;;;;;;;46.95;37.65;;;22.60;91.10;;;;;;5072774;28;20028;-82
2021/05/29 04:56:49;;;;;;;43.60;35.08;;;22.60;91.10;;;;;;5072501;28;20080;-82
2021/05/29 04:59:14;;;;;;;43.42;34.40;;;22.60;91.10;;;;;;5054889;28;20102;-82
2021/05/29 05:01:40;;;;;;;41.20;33.25;;;22.60;91.10;;;;;;5054337;28;20032;-82
2021/05/29 05:04:06;;;;;;;40.30;32.15;;;22.60;91.10;;;;;;5054734;28;20490;-82
2021/05/29 05:06:32;;;;;;;37.85;31.92;;;22.60;91.10;;;;;;5054395;28;20528;-82
2021/05/29 05:08:57;;;;;;;37.67;31.17;;;22.70;91.10;;;;;;5054658;28;20039;-82
2021/05/29 05:11:24;;;;;;;37.35;29.55;;;22.70;91.10;;;;;;5038036;28;20075;-82
2021/05/29 05:13:49;;;;;;;36.97;29.30;;;22.70;91.10;;;;;;5054339;28;20491;-82
2021/05/29 05:16:16;;;;;;;34.25;28.17;;;22.70;91.30;;;;;;5057487;28;20031;-82
2021/05/29 05:18:42;;;;;;;33.45;28.10;;;22.70;91.00;;;;;;5058079;28;20031;-82
2021/05/29 05:21:08;;;;;;;32.15;25.92;;;22.70;91.00;;;;;;5041887;28;20085;-82
2021/05/29 05:23:34;;;;;;;28.88;23.58;;;22.70;91.00;;;;;;5024676;28;20363;-82
2021/05/29 05:26:00;;;;;;;30.73;24.20;;;22.70;91.00;;;;;;5058459;28;20024;-82
2021/05/29 05:28:27;;;;;;;26.55;21.88;;;22.70;91.00;;;;;;5075886;28;20051;-82
2021/05/29 05:30:58;;;;;;;25.48;21.50;;;22.70;91.00;;;;;;5041435;28;20081;-82
2021/05/29 05:33:25;;;;;;;25.67;20.70;;;22.70;90.90;;;;;;5058037;28;20398;-82
2021/05/29 05:35:51;;;;;;;24.30;19.88;;;22.70;90.90;;;;;;5057822;28;20029;-82
2021/05/29 05:38:17;;;;;;;21.02;17.45;;;22.70;90.90;;;;;;5058264;28;20032;-81
2021/05/29 05:40:42;;;;;;;20.63;17.75;;;22.70;90.90;;;;;;5041265;28;20483;-82
2021/05/29 05:43:09;;;;;;;21.63;17.27;;;22.70;90.90;;;;;;5057885;28;20028;-81
2021/05/29 05:45:35;;;;;;;19.38;16.17;;;22.70;90.90;;;;;;5057453;28;20029;-82
2021/05/29 05:48:00;;;;;;;19.35;15.98;;;22.70;90.90;;;;;;5057919;28;20470;-82
2021/05/29 05:50:26;;;;;;;20.73;16.13;;;22.80;90.90;;;;;;5041314;28;20071;-82
2021/05/29 05:52:52;;;;;;;15.80;13.88;;;22.80;90.90;;;;;;5057344;28;20478;-82
2021/05/29 05:55:17;;;;;;;16.27;13.98;;;22.80;90.90;;;;;;5057823;28;20028;-81
2021/05/29 05:57:43;;;;;;;17.25;14.27;;;22.80;90.90;;;;;;5057142;28;20123;-82
2021/05/29 06:00:11;;;;;;;16.65;13.85;;;22.80;91.00;;;;;;5075598;28;20559;-81
2021/05/29 06:02:38;;;;;;;15.55;13.63;;;22.80;91.00;;;;;;5057294;28;20033;-81
2021/05/29 06:05:04;;;;;;;15.70;13.27;;;22.80;91.00;;;;;;5057688;28;20051;-82
2021/05/29 06:07:29;;;;;;;16.95;13.65;;;22.80;91.00;;;;;;5075298;28;20515;-82
2021/05/29 06:09:55;;;;;;;15.77;13.32;;;22.80;91.10;;;;;;5075065;28;20040;-82
2021/05/29 06:12:21;;;;;;;15.60;13.02;;;22.90;91.20;;;;;;5057360;28;20183;-81
2021/05/29 06:20:15;;;;;;;15.13;13.33;;;22.90;91.20;;;;;;5075265;28;20098;-81
2021/05/29 06:22:41;;;;;;;15.02;12.55;;;22.90;91.20;;;;;;5056957;28;20028;-81
2021/05/29 06:25:13;;;;;;;15.57;12.93;;;22.90;91.20;;;;;;5057366;28;20028;-81
2021/05/29 06:27:38;;;;;;;14.77;12.05;;;22.90;91.20;;;;;;5073464;28;20028;-82
2021/05/29 06:30:06;;;;;;;14.27;12.23;;;22.90;91.20;;;;;;5074789;28;20116;-80
2021/05/29 06:32:32;;;;;;;13.02;10.65;;;22.90;91.20;;;;;;5057574;28;20033;-81
2021/05/29 06:34:57;;;;;;;13.10;10.60;;;22.90;91.20;;;;;;5074360;28;20035;-82
2021/05/29 06:37:23;;;;;;;12.50;10.13;;;22.90;91.20;;;;;;5056986;28;20029;-81
2021/05/29 06:39:49;;;;;;;11.90;9.73;;;22.90;91.20;;;;;;5074931;28;20033;-81
2021/05/29 06:42:15;;;;;;;11.80;9.88;;;22.90;91.20;;;;;;5056656;28;20025;-81
2021/05/29 06:44:41;;;;;;;12.32;9.55;;;22.90;91.20;;;;;;5074519;28;20073;-81
2021/05/29 06:47:07;;;;;;;11.95;9.27;;;22.90;91.20;;;;;;5056953;28;20073;-80
2021/05/29 06:49:35;;;;;;;10.77;8.90;;;22.90;91.10;;;;;;5039797;28;20040;-81
2021/05/29 06:52:11;;;;;;;11.98;8.55;;;22.90;91.20;;;;;;5074236;28;20039;-81
2021/05/29 06:59:47;;;;;;;8.32;7.45;;;22.90;91.30;;;;;;5059038;28;20141;-80
2021/05/29 07:02:12;;;;;;;8.75;7.05;;;22.90;91.10;;;;;;5056592;28;20081;-81
2021/05/29 07:04:38;;;;;;;8.68;7.28;;;22.90;91.10;;;;;;5039803;28;20446;-81
2021/05/29 07:07:04;;;;;;;8.45;7.13;;;22.90;91.10;;;;;;5074168;28;20021;-81
2021/05/29 07:09:29;;;;;;;8.70;6.75;;;22.90;91.10;;;;;;5056606;28;20115;-81
2021/05/29 07:11:55;;;;;;;7.88;6.10;;;22.90;91.10;;;;;;5073509;28;20482;-81
2021/05/29 07:14:21;;;;;;;8.48;6.63;;;22.90;91.10;;;;;;5074195;28;20116;-81
2021/05/29 07:16:50;;;;;;;8.82;7.35;;;22.90;91.10;;;;;;5055931;28;20039;-81
2021/05/29 07:19:16;;;;;;;8.32;7.10;;;22.90;91.10;;;;;;5072305;28;20047;-81
2021/05/29 07:21:41;;;;;;;7.60;6.13;;;22.90;91.10;;;;;;5073721;28;20518;-81
2021/05/29 07:24:07;;;;;;;10.18;6.93;;;22.90;91.00;;;;;;5055708;28;20470;-80
2021/05/29 07:26:33;;;;;;;8.75;6.50;;;23.00;91.10;;;;;;5055793;28;20028;-81
2021/05/29 07:28:59;;;;;;;8.88;6.90;;;23.00;91.10;;;;;;5039219;28;20032;-82
2021/05/29 07:31:24;;;;;;;8.35;6.57;;;23.00;91.00;;;;;;5073609;28;20035;-82
2021/05/29 07:33:54;;;;;;;8.95;6.53;;;23.00;91.00;;;;;;5038798;28;20128;-81
2021/05/29 07:36:19;;;;;;;6.90;6.18;;;23.00;91.00;;;;;;5039471;28;20039;-80
2021/05/29 07:38:45;;;;;;;8.40;5.93;;;23.00;91.00;;;;;;5054879;28;20123;-82
2021/05/29 07:41:11;;;;;;;6.00;5.32;;;23.00;91.00;;;;;;5073249;28;20029;-80
2021/05/29 07:43:37;;;;;;;6.53;5.38;;;23.00;91.00;;;;;;5055478;28;20047;-80
2021/05/29 07:46:03;;;;;;;7.50;6.00;;;23.00;91.20;;;;;;5073289;28;20031;-80
2021/05/29 07:48:30;;;;;;;6.03;5.00;;;23.00;91.00;;;;;;5073143;28;20150;-80
2021/05/29 07:51:02;;;;;;;5.95;5.05;;;23.00;91.00;;;;;;5038542;28;20039;-80
2021/05/29 07:53:36;;;;;;;5.32;4.55;;;23.00;91.00;;;;;;5073398;28;20454;-80
2021/05/29 07:56:08;;;;;;;4.30;3.90;;;23.00;91.00;;;;;;5072712;28;20497;-81
2021/05/29 07:58:34;;;;;;;4.65;4.22;;;23.00;91.00;;;;;;5073381;28;20020;-80
2021/05/29 08:01:00;;;;;;;5.43;4.32;;;23.00;90.90;;;;;;5038595;28;20067;-80
2021/05/29 08:03:29;;;;;;;4.78;4.20;;;23.00;90.90;;;;;;5055291;28;20021;-80
2021/05/29 08:05:55;;;;;;;4.20;3.80;;;23.00;90.90;;;;;;5072989;28;20048;-81
2021/05/29 08:08:23;;;;;;;4.03;3.40;;;23.10;90.90;;;;;;5022365;28;20033;-81
2021/05/29 08:10:50;;;;;;;4.35;3.50;;;23.10;90.90;;;;;;5055047;28;20386;-81
2021/05/29 08:13:17;;;;;;;3.75;3.33;;;23.10;90.90;;;;;;5020690;28;20029;-82
2021/05/29 08:15:43;;;;;;;3.35;3.05;;;23.10;90.90;;;;;;5072797;28;20024;-82
2021/05/29 08:18:09;;;;;;;4.13;3.25;;;23.10;90.90;;;;;;5054767;28;20024;-81
2021/05/29 08:20:36;;;;;;;2.67;2.47;;;23.00;90.80;;;;;;5072892;28;20028;-83
2021/05/29 08:23:03;;;;;;;2.85;2.42;;;23.10;90.90;;;;;;5072917;28;20032;-83
2021/05/29 08:25:29;;;;;;;3.00;2.40;;;23.10;90.90;;;;;;5055230;28;20383;-85
2021/05/29 08:27:55;;;;;;;2.75;2.45;;;23.10;90.80;;;;;;5038505;28;20039;-84
2021/05/29 08:30:21;;;;;;;3.28;2.42;;;23.10;90.80;;;;;;5021838;28;20416;-81
2021/05/29 08:32:46;;;;;;;2.92;2.42;;;23.10;90.80;;;;;;5055221;28;20029;-82
2021/05/29 08:35:12;;;;;;;3.40;2.42;;;23.10;90.70;;;;;;5054691;28;20035;-82
2021/05/29 08:37:40;;;;;;;3.25;2.95;;;23.10;90.60;;;;;;5054978;28;20462;-82
2021/05/29 08:40:07;;;;;;;3.00;2.58;;;23.10;90.50;;;;;;5053375;28;20386;-82
2021/05/29 08:42:32;;;;;;;3.85;3.10;;;23.10;90.70;;;;;;5038200;28;20028;-82
2021/05/29 08:44:58;;;;;;;2.63;2.40;;;23.10;90.40;;;;;;5055050;28;20025;-83
2021/05/29 08:47:26;;;;;;;2.90;2.25;;;23.00;90.40;;;;;;5038394;28;20032;-82
2021/05/29 08:49:52;;;;;;;2.10;1.90;;;23.10;90.50;;;;;;5073344;28;20032;-82
2021/05/29 08:52:17;;;;;;;3.58;2.40;;;23.10;90.50;;;;;;5076852;28;20029;-81
2021/05/29 08:54:43;;;;;;;2.20;2.00;;;23.10;90.60;;;;;;5076846;28;20025;-82
2021/05/29 08:57:09;;;;;;;2.47;2.22;;;23.10;90.60;;;;;;5058386;28;20452;-82
2021/05/29 08:59:35;;;;;;;1.88;1.48;;;23.10;90.70;;;;;;5058903;28;20028;-82
2021/05/29 09:02:02;;;;;;;2.25;1.75;;;23.10;90.70;;;;;;5041884;28;20063;-82
2021/05/29 09:04:28;;;;;;;2.47;1.80;;;23.10;90.70;;;;;;5041869;28;20165;-82
2021/05/29 09:06:56;;;;;;;2.70;2.00;;;23.10;90.70;;;;;;5058505;28;20455;-84
2021/05/29 09:09:22;;;;;;;3.50;2.85;;;23.20;90.60;;;;;;5059021;28;20055;-82
2021/05/29 09:11:53;;;;;;;3.90;2.90;;;23.20;90.50;;;;;;5058515;28;20039;-82
2021/05/29 09:14:25;;;;;;;5.22;3.38;;;23.20;90.50;;;;;;5058706;28;20071;-82
2021/05/29 09:17:16;;;;;;;5.25;2.65;;;23.20;90.40;;;;;;5058324;28;20092;-82
2021/05/29 09:19:57;;;;;;;3.58;2.65;;;23.20;90.30;;;;;;5058214;28;20036;-83
2021/05/29 09:22:25;;;;;;;3.10;2.60;;;23.20;90.40;;;;;;5076535;28;20085;-82
2021/05/29 09:24:58;;;;;;;3.83;2.95;;;23.20;90.50;;;;;;5057961;28;20444;-82
2021/05/29 09:27:24;;;;;;;4.53;2.63;;;23.20;90.60;;;;;;5076194;28;20029;-81
2021/05/29 09:29:50;;;;;;;5.25;3.10;;;23.20;90.70;;;;;;5025215;28;20043;-82
2021/05/29 09:32:15;;;;;;;4.30;2.80;;;23.20;90.80;;;;;;5075823;28;20391;-82
2021/05/29 09:34:51;;;;;;;4.65;2.90;;;23.30;90.90;;;;;;5058303;28;20040;-82
2021/05/29 09:37:24;;;;;;;4.65;3.20;;;23.30;91.00;;;;;;5057614;28;20028;-83
2021/05/29 09:39:57;;;;;;;5.63;3.43;;;23.30;91.10;;;;;;5058116;28;20036;-82
2021/05/29 09:42:34;;;;;;;5.40;2.78;;;23.30;91.10;;;;;;5057912;28;20119;-83
2021/05/29 09:45:19;;;;;;;6.97;4.38;;;23.30;91.20;;;;;;5057928;28;20055;-84
2021/05/29 09:48:11;;;;;;;20.65;9.73;;;23.40;91.20;;;;;;5076146;28;20079;-84
2021/05/29 09:51:03;;;;;;;20.30;10.75;;;23.40;91.20;;;;;;5058064;28;20465;-83
2021/05/29 09:53:36;;;;;;;20.50;11.02;;;23.40;91.20;;;;;;5057604;28;20025;-84
2021/05/29 09:56:02;;;;;;;22.17;11.73;;;23.40;91.20;;;;;;5075481;28;20530;-84
2021/05/29 09:58:49;;;;;;;21.42;10.25;;;23.40;91.20;;;;;;5041316;28;20068;-83
2021/05/29 10:01:50;;;;;;;18.30;9.70;;;23.40;91.20;;;;;;5056332;28;20058;-83
2021/05/29 10:04:30;;;;;;;20.15;10.45;;;23.40;91.30;;;;;;5057477;28;20021;-83
2021/05/29 10:06:58;;;;;;;17.33;9.93;;;23.40;91.20;;;;;;5057478;28;20475;-84
2021/05/29 10:09:24;;;;;;;16.30;9.98;;;23.40;91.10;;;;;;5057196;28;20036;-83
2021/05/29 10:11:49;;;;;;;18.65;9.88;;;23.40;91.30;;;;;;5057670;28;20040;-84
2021/05/29 10:14:15;;;;;;;18.33;10.18;;;23.40;91.00;;;;;;5057190;28;20463;-85
2021/05/29 10:16:42;;;;;;;17.13;9.93;;;23.40;91.00;;;;;;5057458;28;20028;-84
2021/05/29 10:19:09;;;;;;;15.00;8.57;;;23.40;91.10;;;;;;5057138;28;20029;-84
2021/05/29 10:21:36;;;;;;;14.65;8.75;;;23.40;91.10;;;;;;5024395;28;20040;-84
2021/05/29 10:24:04;;;;;;;15.32;8.70;;;23.40;91.10;;;;;;5056972;28;20033;-86
2021/05/29 10:26:30;;;;;;;12.93;7.55;;;23.50;91.00;;;;;;5057185;28;20025;-84
2021/05/29 10:28:57;;;;;;;14.50;7.75;;;23.50;91.00;;;;;;5040534;28;20051;-84
2021/05/29 10:31:28;;;;;;;12.50;6.82;;;23.50;91.00;;;;;;5056512;28;20039;-84
2021/05/29 10:33:54;;;;;;;11.73;7.25;;;23.50;91.00;;;;;;5075097;28;20033;-84
2021/05/29 10:36:40;;;;;;;12.00;7.30;;;23.50;91.00;;;;;;5039088;28;20077;-84
2021/05/29 10:39:09;;;;;;;13.48;7.88;;;23.50;91.00;;;;;;5074657;28;20453;-85
2021/05/29 10:41:56;;;;;;;9.90;6.07;;;23.50;91.00;;;;;;5074751;28;20056;-85
2021/05/29 10:44:42;;;;;;;10.75;6.50;;;23.50;91.00;;;;;;5074681;28;20443;-85
2021/05/29 10:47:08;;;;;;;11.23;6.82;;;23.50;91.00;;;;;;5056797;28;20032;-84
2021/05/29 10:49:58;;;;;;;11.23;6.32;;;23.50;91.00;;;;;;5073309;28;20043;-82
2021/05/29 10:52:30;;;;;;;9.55;6.03;;;23.60;91.00;;;;;;5073058;28;20033;-83
2021/05/29 10:55:14;;;;;;;9.23;6.07;;;23.60;91.00;;;;;;5073214;28;20052;-83
2021/05/29 10:57:55;;;;;;;8.60;5.78;;;23.60;90.90;;;;;;5069472;28;20102;-83
2021/05/29 11:00:50;;;;;;;8.02;5.32;;;23.60;91.00;;;;;;5054323;28;20036;-83
2021/05/29 11:03:16;;;;;;;7.80;5.18;;;23.60;90.90;;;;;;5041111;28;20041;-83
2021/05/29 11:05:46;;;;;;;8.95;5.88;;;23.60;90.90;;;;;;5054318;28;20098;-83
2021/05/29 11:08:50;;;;;;;9.38;4.80;;;23.60;90.90;;;;;;5053956;28;20383;-84
2021/05/29 11:14:19;;;;;;;6.20;4.05;;;23.60;90.90;;;;;;5053849;28;20064;-83
2021/05/29 11:16:51;;;;;;;8.55;5.00;;;23.60;90.90;;;;;;5053036;28;20107;-83
2021/05/29 11:19:23;;;;;;;5.97;3.55;;;23.60;90.90;;;;;;5068561;28;20029;-85
2021/05/29 11:22:14;;;;;;;7.10;4.55;;;23.60;90.90;;;;;;5053712;28;20048;-83
2021/05/29 11:24:56;;;;;;;5.82;3.78;;;23.60;90.90;;;;;;5053988;28;20070;-83
2021/05/29 11:27:33;;;;;;;5.25;3.45;;;23.50;90.90;;;;;;5052694;28;20048;-84
2021/05/29 11:30:02;;;;;;;5.07;3.20;;;23.60;90.90;;;;;;5053893;28;20029;-84
2021/05/29 11:35:26;;;;;;;5.35;3.45;;;23.60;91.10;;;;;;5053618;28;20029;-84
2021/05/29 11:37:58;;;;;;;5.05;3.15;;;23.60;91.00;;;;;;5069313;28;20029;-84
2021/05/29 11:40:43;;;;;;;4.07;2.63;;;23.60;91.00;;;;;;5068877;28;20029;-83
2021/05/29 11:43:09;;;;;;;3.65;2.42;;;23.60;91.10;;;;;;5052509;28;20029;-83
2021/05/29 11:45:34;;;;;;;3.97;2.67;;;23.60;91.10;;;;;;5053445;28;20017;-83
2021/05/29 11:48:00;;;;;;;4.78;3.00;;;23.60;91.10;;;;;;5052087;28;20397;-83
2021/05/29 11:50:26;;;;;;;4.85;3.17;;;23.60;91.20;;;;;;5053269;28;20028;-83
2021/05/29 11:52:53;;;;;;;4.68;2.80;;;23.60;91.20;;;;;;5068915;28;20169;-83
2021/05/29 11:55:21;;;;;;;5.30;3.22;;;23.60;91.20;;;;;;5035501;28;20048;-83
2021/05/29 11:57:56;;;;;;;5.15;3.28;;;23.60;91.20;;;;;;5064503;28;20106;-84
2021/05/29 12:00:22;;;;;;;3.47;2.63;;;23.60;91.20;;;;;;5071996;28;20441;-83
2021/05/29 12:02:52;;;;;;;3.30;2.38;;;23.60;91.30;;;;;;5055418;28;20486;-83
2021/05/29 12:05:19;;;;;;;3.35;2.55;;;23.60;91.30;;;;;;5071987;28;20037;-83
2021/05/29 12:08:02;;;;;;;4.65;2.50;;;23.60;91.30;;;;;;5073140;28;20053;-84
2021/05/29 12:10:52;;;;;;;2.35;1.90;;;23.60;91.30;;;;;;5054579;28;20132;-84
2021/05/29 12:13:23;;;;;;;3.58;2.15;;;23.60;91.30;;;;;;5072755;28;20104;-84
2021/05/29 12:16:00;;;;;;;2.60;1.88;;;23.60;91.40;;;;;;5072735;28;20439;-83
2021/05/29 12:18:39;;;;;;;3.00;2.35;;;23.60;91.40;;;;;;5071554;28;20029;-83
2021/05/29 12:21:07;;;;;;;2.38;1.85;;;23.60;91.40;;;;;;5072736;28;20390;-83
2021/05/29 12:23:56;;;;;;;3.03;2.25;;;23.60;91.40;;;;;;5072520;28;20104;-84
2021/05/29 12:26:24;;;;;;;2.33;2.00;;;23.60;91.40;;;;;;5072597;28;20047;-83
2021/05/29 12:28:50;;;;;;;2.83;1.80;;;23.60;91.60;;;;;;5072839;28;20055;-83
2021/05/29 12:31:18;;;;;;;2.00;1.80;;;23.60;91.40;;;;;;5054854;28;20474;-84
2021/05/29 12:33:43;;;;;;;1.73;1.60;;;23.60;91.40;;;;;;5072197;28;20024;-83
2021/05/29 12:36:12;;;;;;;3.45;2.20;;;23.60;91.40;;;;;;5071538;28;20355;-83
2021/05/29 12:38:54;;;;;;;2.40;1.90;;;23.60;91.40;;;;;;5054801;28;20482;-83
2021/05/29 12:41:22;;;;;;;2.55;1.80;;;23.60;91.40;;;;;;5054528;28;20028;-84
2021/05/29 12:44:10;;;;;;;1.98;1.75;;;23.60;91.40;;;;;;5072554;28;20086;-83
2021/05/29 12:46:35;;;;;;;2.42;1.92;;;23.60;91.40;;;;;;5054652;28;20047;-84
2021/05/29 12:49:15;;;;;;;2.65;2.05;;;23.60;91.40;;;;;;5071316;28;20111;-83
2021/05/29 12:51:46;;;;;;;2.83;2.00;;;23.60;91.40;;;;;;5053853;28;20039;-83
2021/05/29 12:54:13;;;;;;;2.92;2.15;;;23.60;91.40;;;;;;5072842;28;20024;-83
2021/05/29 12:56:50;;;;;;;3.40;2.25;;;23.60;91.30;;;;;;5071333;28;20029;-84
2021/05/29 12:59:22;;;;;;;2.72;2.15;;;23.60;91.30;;;;;;5073018;28;20118;-83